Greenacres, Florida
Current Conditions -  °F | °C
As of 6:53 AM on Tuesday 27 Jan 2015 (Local Time) from KPBI Reporting Station
Few Clouds Few Clouds  
Wind Chill: 51°   Ceiling: Unl
Heat Index: 51°   Visibility: 10mi
Dew Point: 46°   Wind: 9mph
Humidity: 83%   Direction: 320°NW
Pressure: 30.02"   Gusts: NA
Location:  26.6599°N, 80.1276°W
Report Text: KPBI 271153Z 32008KT 10SM FEW030 11/08 A3002 RMK AO2 SLP165 70005 T01060078 10128 20094 53022
Loading
Personal Weather Stations






























Interactive Weather Map New forecast layout! Learn more

10-Day Weather Forecast

Advertisements
Track Severe Weather on mobile